sensor_id;sensor_type;location;lat;lon;timestamp;pressure;altitude;pressure_sealevel;temperature;humidity
37856;BME280;23694;43.274;26.924;2024-01-16T00:00:28;97267.38;;;5.96;75.22
37856;BME280;23694;43.274;26.924;2024-01-16T00:02:55;97261.00;;;6.00;75.59
37856;BME280;23694;43.274;26.924;2024-01-16T00:05:22;97256.19;;;5.83;76.85
37856;BME280;23694;43.274;26.924;2024-01-16T00:07:49;97250.28;;;5.70;77.89
37856;BME280;23694;43.274;26.924;2024-01-16T00:10:15;97261.94;;;5.99;77.26
37856;BME280;23694;43.274;26.924;2024-01-16T00:12:42;97260.41;;;6.19;76.12
37856;BME280;23694;43.274;26.924;2024-01-16T00:15:08;97259.81;;;6.27;76.00
37856;BME280;23694;43.274;26.924;2024-01-16T00:17:35;97257.31;;;6.36;75.58
37856;BME280;23694;43.274;26.924;2024-01-16T00:20:01;97255.78;;;6.34;75.91
37856;BME280;23694;43.274;26.924;2024-01-16T00:22:29;97259.09;;;6.25;74.92
37856;BME280;23694;43.274;26.924;2024-01-16T00:24:56;97262.63;;;6.35;75.60
37856;BME280;23694;43.274;26.924;2024-01-16T00:27:23;97268.66;;;6.24;75.35
37856;BME280;23694;43.274;26.924;2024-01-16T00:29:50;97258.72;;;6.41;75.02
37856;BME280;23694;43.274;26.924;2024-01-16T00:32:16;97256.13;;;6.63;74.35
37856;BME280;23694;43.274;26.924;2024-01-16T00:34:43;97259.09;;;6.58;74.75
37856;BME280;23694;43.274;26.924;2024-01-16T00:37:09;97256.72;;;6.66;74.09
37856;BME280;23694;43.274;26.924;2024-01-16T00:39:38;97261.06;;;6.77;73.67
37856;BME280;23694;43.274;26.924;2024-01-16T00:42:04;97255.72;;;6.79;72.65
37856;BME280;23694;43.274;26.924;2024-01-16T00:44:31;97255.03;;;6.77;73.86
37856;BME280;23694;43.274;26.924;2024-01-16T00:46:58;97242.28;;;6.62;74.56
37856;BME280;23694;43.274;26.924;2024-01-16T00:49:24;97256.91;;;6.86;74.00
37856;BME280;23694;43.274;26.924;2024-01-16T00:51:50;97239.47;;;6.97;73.05
37856;BME280;23694;43.274;26.924;2024-01-16T00:54:16;97232.94;;;7.03;73.53
37856;BME280;23694;43.274;26.924;2024-01-16T00:56:42;97227.97;;;7.00;72.70
37856;BME280;23694;43.274;26.924;2024-01-16T00:59:08;97214.72;;;7.03;72.28
37856;BME280;23694;43.274;26.924;2024-01-16T01:01:37;97226.56;;;6.96;72.35
37856;BME280;23694;43.274;26.924;2024-01-16T01:04:03;97222.41;;;6.73;73.01
37856;BME280;23694;43.274;26.924;2024-01-16T01:06:29;97209.22;;;6.85;73.56
37856;BME280;23694;43.274;26.924;2024-01-16T01:08:56;97213.56;;;6.96;73.00
37856;BME280;23694;43.274;26.924;2024-01-16T01:11:22;97208.31;;;7.07;72.57
37856;BME280;23694;43.274;26.924;2024-01-16T01:13:48;97211.34;;;7.12;72.53
37856;BME280;23694;43.274;26.924;2024-01-16T01:16:14;97217.63;;;7.21;71.58
37856;BME280;23694;43.274;26.924;2024-01-16T01:18:44;97208.47;;;7.26;71.14
37856;BME280;23694;43.274;26.924;2024-01-16T01:21:10;97209.03;;;7.30;70.77
37856;BME280;23694;43.274;26.924;2024-01-16T01:23:36;97214.19;;;7.20;70.90
37856;BME280;23694;43.274;26.924;2024-01-16T01:26:02;97215.13;;;7.19;71.17
37856;BME280;23694;43.274;26.924;2024-01-16T01:28:29;97208.53;;;7.15;71.82
37856;BME280;23694;43.274;26.924;2024-01-16T01:30:55;97219.22;;;7.01;72.73
37856;BME280;23694;43.274;26.924;2024-01-16T01:33:22;97218.06;;;6.94;73.72
37856;BME280;23694;43.274;26.924;2024-01-16T01:35:48;97219.72;;;6.95;73.64
37856;BME280;23694;43.274;26.924;2024-01-16T01:38:14;97218.44;;;6.89;73.75
37856;BME280;23694;43.274;26.924;2024-01-16T01:40:40;97210.72;;;6.99;73.55
37856;BME280;23694;43.274;26.924;2024-01-16T01:43:21;97203.06;;;6.86;74.48
37856;BME280;23694;43.274;26.924;2024-01-16T01:48:35;97204.03;;;6.85;74.29
37856;BME280;23694;43.274;26.924;2024-01-16T01:51:02;97189.47;;;6.83;75.23
37856;BME280;23694;43.274;26.924;2024-01-16T01:53:30;97198.56;;;6.88;74.93
37856;BME280;23694;43.274;26.924;2024-01-16T01:55:57;97195.25;;;6.86;75.56
37856;BME280;23694;43.274;26.924;2024-01-16T01:58:23;97194.06;;;6.90;75.63
37856;BME280;23694;43.274;26.924;2024-01-16T02:00:50;97183.44;;;6.82;76.41
37856;BME280;23694;43.274;26.924;2024-01-16T02:03:17;97187.50;;;6.75;76.88
37856;BME280;23694;43.274;26.924;2024-01-16T02:05:44;97187.75;;;6.72;77.84
37856;BME280;23694;43.274;26.924;2024-01-16T02:08:12;97188.31;;;6.76;77.90
37856;BME280;23694;43.274;26.924;2024-01-16T02:10:39;97192.47;;;6.78;78.08
37856;BME280;23694;43.274;26.924;2024-01-16T02:13:08;97218.63;;;6.65;78.31
37856;BME280;23694;43.274;26.924;2024-01-16T02:15:35;97206.13;;;6.48;78.76
37856;BME280;23694;43.274;26.924;2024-01-16T02:18:01;97201.16;;;6.45;79.73
37856;BME280;23694;43.274;26.924;2024-01-16T02:20:28;97208.50;;;6.29;81.06
37856;BME280;23694;43.274;26.924;2024-01-16T02:22:55;97219.28;;;6.24;81.68
37856;BME280;23694;43.274;26.924;2024-01-16T02:25:23;97216.69;;;6.24;81.77
37856;BME280;23694;43.274;26.924;2024-01-16T02:27:49;97228.38;;;6.30;81.82
37856;BME280;23694;43.274;26.924;2024-01-16T02:30:15;97218.91;;;6.40;81.37
37856;BME280;23694;43.274;26.924;2024-01-16T02:32:42;97223.88;;;6.32;81.67
37856;BME280;23694;43.274;26.924;2024-01-16T02:35:08;97226.47;;;6.32;82.31
37856;BME280;23694;43.274;26.924;2024-01-16T02:37:37;97230.84;;;6.31;81.87
37856;BME280;23694;43.274;26.924;2024-01-16T02:40:04;97229.66;;;6.35;82.03
37856;BME280;23694;43.274;26.924;2024-01-16T02:42:35;97229.66;;;6.35;81.93
37856;BME280;23694;43.274;26.924;2024-01-16T02:45:04;97233.56;;;6.41;82.29
37856;BME280;23694;43.274;26.924;2024-01-16T02:47:31;97242.66;;;6.47;81.47
37856;BME280;23694;43.274;26.924;2024-01-16T02:49:58;97245.38;;;6.45;81.95
37856;BME280;23694;43.274;26.924;2024-01-16T02:52:24;97250.59;;;6.34;82.22
37856;BME280;23694;43.274;26.924;2024-01-16T02:54:51;97257.19;;;6.38;82.07
37856;BME280;23694;43.274;26.924;2024-01-16T02:57:17;97263.22;;;6.39;82.33
37856;BME280;23694;43.274;26.924;2024-01-16T02:59:46;97269.75;;;6.55;81.21
37856;BME280;23694;43.274;26.924;2024-01-16T03:02:12;97269.97;;;6.52;80.81
37856;BME280;23694;43.274;26.924;2024-01-16T03:04:39;97270.31;;;6.48;81.42
37856;BME280;23694;43.274;26.924;2024-01-16T03:07:05;97278.94;;;6.37;81.65
37856;BME280;23694;43.274;26.924;2024-01-16T03:09:31;97277.78;;;6.30;82.36
37856;BME280;23694;43.274;26.924;2024-01-16T03:11:59;97282.97;;;6.30;82.39
37856;BME280;23694;43.274;26.924;2024-01-16T03:14:25;97295.03;;;6.09;84.16
37856;BME280;23694;43.274;26.924;2024-01-16T03:16:51;97293.72;;;6.03;83.91
37856;BME280;23694;43.274;26.924;2024-01-16T03:19:18;97297.38;;;6.00;85.22
37856;BME280;23694;43.274;26.924;2024-01-16T03:21:44;97300.81;;;6.01;85.61
37856;BME280;23694;43.274;26.924;2024-01-16T03:24:10;97313.78;;;5.90;86.14
37856;BME280;23694;43.274;26.924;2024-01-16T03:26:37;97326.53;;;5.93;86.17
37856;BME280;23694;43.274;26.924;2024-01-16T03:29:06;97314.97;;;5.97;85.97
37856;BME280;23694;43.274;26.924;2024-01-16T03:31:32;97324.91;;;6.03;84.82
37856;BME280;23694;43.274;26.924;2024-01-16T03:34:01;97326.47;;;6.28;82.31
37856;BME280;23694;43.274;26.924;2024-01-16T03:36:27;97332.59;;;6.49;80.60
37856;BME280;23694;43.274;26.924;2024-01-16T03:38:54;97326.78;;;6.90;77.58
37856;BME280;23694;43.274;26.924;2024-01-16T03:41:20;97342.84;;;7.18;75.57
37856;BME280;23694;43.274;26.924;2024-01-16T03:43:47;97351.91;;;7.35;74.06
37856;BME280;23694;43.274;26.924;2024-01-16T03:46:13;97351.00;;;7.56;72.23
37856;BME280;23694;43.274;26.924;2024-01-16T03:48:39;97354.00;;;7.73;71.08
37856;BME280;23694;43.274;26.924;2024-01-16T03:51:08;97374.13;;;7.82;70.05
37856;BME280;23694;43.274;26.924;2024-01-16T03:53:34;97366.75;;;7.87;69.39
37856;BME280;23694;43.274;26.924;2024-01-16T03:56:01;97377.88;;;7.89;68.85
37856;BME280;23694;43.274;26.924;2024-01-16T03:58:27;97382.72;;;7.93;68.73
37856;BME280;23694;43.274;26.924;2024-01-16T04:00:53;97408.91;;;7.92;69.61
37856;BME280;23694;43.274;26.924;2024-01-16T04:03:19;97416.28;;;7.87;70.65
37856;BME280;23694;43.274;26.924;2024-01-16T04:05:46;97415.59;;;7.85;70.86
37856;BME280;23694;43.274;26.924;2024-01-16T04:08:12;97417.25;;;7.86;70.79
37856;BME280;23694;43.274;26.924;2024-01-16T04:10:39;97433.59;;;7.88;70.87
37856;BME280;23694;43.274;26.924;2024-01-16T04:13:08;97438.47;;;7.81;71.16
37856;BME280;23694;43.274;26.924;2024-01-16T04:15:38;97435.88;;;7.81;71.18
37856;BME280;23694;43.274;26.924;2024-01-16T04:18:05;97446.50;;;7.78;71.59
37856;BME280;23694;43.274;26.924;2024-01-16T04:20:31;97451.00;;;7.76;71.61
37856;BME280;23694;43.274;26.924;2024-01-16T04:22:58;97458.13;;;7.85;71.03
37856;BME280;23694;43.274;26.924;2024-01-16T04:25:24;97461.56;;;7.86;70.78
37856;BME280;23694;43.274;26.924;2024-01-16T04:27:50;97472.34;;;7.81;70.78
37856;BME280;23694;43.274;26.924;2024-01-16T04:30:16;97476.00;;;7.79;71.43
37856;BME280;23694;43.274;26.924;2024-01-16T04:32:42;97477.19;;;7.75;71.32
37856;BME280;23694;43.274;26.924;2024-01-16T04:35:08;97482.78;;;7.70;71.58
37856;BME280;23694;43.274;26.924;2024-01-16T04:37:35;97473.09;;;7.61;71.73
37856;BME280;23694;43.274;26.924;2024-01-16T04:40:01;97496.41;;;7.62;72.11
37856;BME280;23694;43.274;26.924;2024-01-16T04:42:27;97515.50;;;7.63;71.80
37856;BME280;23694;43.274;26.924;2024-01-16T04:44:53;97512.66;;;7.55;72.79
37856;BME280;23694;43.274;26.924;2024-01-16T04:47:20;97529.25;;;7.54;73.08
37856;BME280;23694;43.274;26.924;2024-01-16T04:49:49;97536.00;;;7.45;73.27
37856;BME280;23694;43.274;26.924;2024-01-16T04:52:15;97538.38;;;7.37;74.14
37856;BME280;23694;43.274;26.924;2024-01-16T04:54:41;97550.22;;;7.30;74.75
37856;BME280;23694;43.274;26.924;2024-01-16T04:57:07;97554.25;;;7.23;75.18
37856;BME280;23694;43.274;26.924;2024-01-16T04:59:33;97567.16;;;7.24;75.68
37856;BME280;23694;43.274;26.924;2024-01-16T05:01:59;97573.78;;;7.17;76.22
37856;BME280;23694;43.274;26.924;2024-01-16T05:04:26;97584.97;;;7.07;77.25
37856;BME280;23694;43.274;26.924;2024-01-16T05:06:52;97597.84;;;6.97;78.04
37856;BME280;23694;43.274;26.924;2024-01-16T05:09:19;97586.69;;;6.84;78.65
37856;BME280;23694;43.274;26.924;2024-01-16T05:11:45;97595.78;;;6.78;79.30
37856;BME280;23694;43.274;26.924;2024-01-16T05:14:12;97605.56;;;6.63;81.21
37856;BME280;23694;43.274;26.924;2024-01-16T05:16:41;97609.59;;;6.44;83.50
37856;BME280;23694;43.274;26.924;2024-01-16T05:19:07;97613.38;;;6.40;83.39
37856;BME280;23694;43.274;26.924;2024-01-16T05:21:33;97619.28;;;6.42;83.36
37856;BME280;23694;43.274;26.924;2024-01-16T05:23:59;97622.28;;;6.24;84.58
37856;BME280;23694;43.274;26.924;2024-01-16T05:26:26;97629.25;;;6.24;84.81
37856;BME280;23694;43.274;26.924;2024-01-16T05:28:55;97632.09;;;6.08;84.19
37856;BME280;23694;43.274;26.924;2024-01-16T05:31:21;97632.44;;;6.03;83.82
37856;BME280;23694;43.274;26.924;2024-01-16T05:33:51;97637.75;;;6.02;83.55
37856;BME280;23694;43.274;26.924;2024-01-16T05:36:17;97641.56;;;5.84;84.03
37856;BME280;23694;43.274;26.924;2024-01-16T05:38:43;97649.59;;;5.68;84.24
37856;BME280;23694;43.274;26.924;2024-01-16T05:41:09;97647.00;;;5.68;83.71
37856;BME280;23694;43.274;26.924;2024-01-16T05:43:35;97660.41;;;5.62;83.60
37856;BME280;23694;43.274;26.924;2024-01-16T05:46:02;97656.06;;;5.62;83.30
37856;BME280;23694;43.274;26.924;2024-01-16T05:48:28;97666.56;;;5.48;84.69
37856;BME280;23694;43.274;26.924;2024-01-16T05:50:54;97666.88;;;5.44;85.61
37856;BME280;23694;43.274;26.924;2024-01-16T05:53:20;97666.78;;;5.32;87.18
37856;BME280;23694;43.274;26.924;2024-01-16T05:55:46;97680.00;;;5.15;88.24
37856;BME280;23694;43.274;26.924;2024-01-16T05:58:12;97678.88;;;5.06;88.63
37856;BME280;23694;43.274;26.924;2024-01-16T06:00:39;97674.06;;;5.00;89.19
37856;BME280;23694;43.274;26.924;2024-01-16T06:03:05;97689.91;;;4.83;90.30
37856;BME280;23694;43.274;26.924;2024-01-16T06:05:31;97685.25;;;4.88;90.10
37856;BME280;23694;43.274;26.924;2024-01-16T06:07:57;97704.03;;;4.79;90.32
37856;BME280;23694;43.274;26.924;2024-01-16T06:10:24;97707.06;;;4.86;90.72
37856;BME280;23694;43.274;26.924;2024-01-16T06:12:50;97715.00;;;4.70;93.92
37856;BME280;23694;43.274;26.924;2024-01-16T06:15:16;97728.88;;;4.69;95.14
37856;BME280;23694;43.274;26.924;2024-01-16T06:17:42;97724.94;;;4.63;95.91
37856;BME280;23694;43.274;26.924;2024-01-16T06:20:08;97740.28;;;4.66;96.81
37856;BME280;23694;43.274;26.924;2024-01-16T06:22:35;97764.97;;;4.59;98.35
37856;BME280;23694;43.274;26.924;2024-01-16T06:25:01;97787.06;;;4.51;100.00
37856;BME280;23694;43.274;26.924;2024-01-16T06:27:28;97781.19;;;4.34;100.00
37856;BME280;23694;43.274;26.924;2024-01-16T06:29:54;97785.25;;;4.24;100.00
37856;BME280;23694;43.274;26.924;2024-01-16T06:32:20;97797.28;;;4.25;100.00
37856;BME280;23694;43.274;26.924;2024-01-16T06:34:46;97785.56;;;4.05;100.00
37856;BME280;23694;43.274;26.924;2024-01-16T06:37:12;97799.56;;;3.87;100.00
37856;BME280;23694;43.274;26.924;2024-01-16T06:39:39;97806.03;;;3.66;100.00
37856;BME280;23694;43.274;26.924;2024-01-16T06:42:05;97808.97;;;3.60;100.00
37856;BME280;23694;43.274;26.924;2024-01-16T06:44:31;97815.47;;;3.37;100.00
37856;BME280;23694;43.274;26.924;2024-01-16T06:46:58;97813.06;;;3.34;100.00
37856;BME280;23694;43.274;26.924;2024-01-16T06:49:24;97823.25;;;3.21;100.00
37856;BME280;23694;43.274;26.924;2024-01-16T06:51:50;97825.06;;;3.65;100.00
37856;BME280;23694;43.274;26.924;2024-01-16T06:54:16;97822.47;;;3.95;100.00
37856;BME280;23694;43.274;26.924;2024-01-16T06:56:42;97833.09;;;4.47;100.00
37856;BME280;23694;43.274;26.924;2024-01-16T06:59:08;97792.00;;;4.41;100.00
37856;BME280;23694;43.274;26.924;2024-01-16T07:01:34;97800.53;;;5.38;94.32
37856;BME280;23694;43.274;26.924;2024-01-16T07:04:00;97803.53;;;6.60;81.54
37856;BME280;23694;43.274;26.924;2024-01-16T07:06:28;97829.47;;;5.59;84.71
37856;BME280;23694;43.274;26.924;2024-01-16T07:08:54;97821.41;;;5.09;88.26
37856;BME280;23694;43.274;26.924;2024-01-16T07:11:20;97811.84;;;5.24;89.01
37856;BME280;23694;43.274;26.924;2024-01-16T07:13:46;97810.22;;;6.26;80.53
37856;BME280;23694;43.274;26.924;2024-01-16T07:16:14;97833.63;;;6.88;75.34
37856;BME280;23694;43.274;26.924;2024-01-16T07:18:40;97826.66;;;6.27;76.42
37856;BME280;23694;43.274;26.924;2024-01-16T07:21:16;97849.00;;;5.25;82.12
37856;BME280;23694;43.274;26.924;2024-01-16T07:23:43;97872.31;;;4.57;87.58
37856;BME280;23694;43.274;26.924;2024-01-16T07:26:09;97880.78;;;4.16;92.32
37856;BME280;23694;43.274;26.924;2024-01-16T07:28:35;97896.16;;;4.19;94.10
37856;BME280;23694;43.274;26.924;2024-01-16T07:31:02;97897.16;;;4.02;94.29
37856;BME280;23694;43.274;26.924;2024-01-16T07:33:28;97886.88;;;3.71;97.80
37856;BME280;23694;43.274;26.924;2024-01-16T07:35:54;97919.03;;;3.67;98.89
37856;BME280;23694;43.274;26.924;2024-01-16T07:38:20;97909.13;;;3.59;100.00
37856;BME280;23694;43.274;26.924;2024-01-16T07:40:46;97924.44;;;3.48;100.00
37856;BME280;23694;43.274;26.924;2024-01-16T07:43:13;97909.25;;;3.42;100.00
37856;BME280;23694;43.274;26.924;2024-01-16T07:45:39;97935.88;;;3.44;100.00
37856;BME280;23694;43.274;26.924;2024-01-16T07:48:05;97942.22;;;3.54;100.00
37856;BME280;23694;43.274;26.924;2024-01-16T07:50:31;97938.50;;;3.74;100.00
37856;BME280;23694;43.274;26.924;2024-01-16T07:52:59;97946.72;;;4.40;98.88
37856;BME280;23694;43.274;26.924;2024-01-16T07:55:25;97952.03;;;4.96;89.23
37856;BME280;23694;43.274;26.924;2024-01-16T07:57:51;97953.69;;;4.54;88.49
37856;BME280;23694;43.274;26.924;2024-01-16T08:00:17;97965.03;;;4.23;90.35
37856;BME280;23694;43.274;26.924;2024-01-16T08:02:44;97976.81;;;3.99;91.82
37856;BME280;23694;43.274;26.924;2024-01-16T08:05:10;97987.72;;;4.64;89.96
37856;BME280;23694;43.274;26.924;2024-01-16T08:07:36;98008.47;;;5.76;79.90
37856;BME280;23694;43.274;26.924;2024-01-16T08:10:02;98007.50;;;6.83;72.52
37856;BME280;23694;43.274;26.924;2024-01-16T08:12:29;97996.84;;;7.98;65.69
37856;BME280;23694;43.274;26.924;2024-01-16T08:14:55;98011.03;;;8.87;60.78
37856;BME280;23694;43.274;26.924;2024-01-16T08:17:21;98025.06;;;9.65;57.13
37856;BME280;23694;43.274;26.924;2024-01-16T08:19:47;98044.94;;;9.45;57.19
37856;BME280;23694;43.274;26.924;2024-01-16T08:22:14;98053.09;;;9.74;55.04
37856;BME280;23694;43.274;26.924;2024-01-16T08:24:40;98042.63;;;10.39;52.59
37856;BME280;23694;43.274;26.924;2024-01-16T08:27:06;98058.00;;;10.86;50.72
37856;BME280;23694;43.274;26.924;2024-01-16T08:29:32;98059.91;;;10.63;50.78
37856;BME280;23694;43.274;26.924;2024-01-16T08:31:58;98078.25;;;10.84;49.42
37856;BME280;23694;43.274;26.924;2024-01-16T08:34:24;98089.84;;;10.49;50.05
37856;BME280;23694;43.274;26.924;2024-01-16T08:36:51;98082.50;;;10.32;50.84
37856;BME280;23694;43.274;26.924;2024-01-16T08:39:23;98095.03;;;10.06;51.42
37856;BME280;23694;43.274;26.924;2024-01-16T08:41:50;98097.00;;;10.47;50.51
37856;BME280;23694;43.274;26.924;2024-01-16T08:44:17;98107.66;;;11.29;47.91
37856;BME280;23694;43.274;26.924;2024-01-16T08:46:43;98096.91;;;10.90;48.44
37856;BME280;23694;43.274;26.924;2024-01-16T08:49:09;98107.41;;;10.26;50.18
37856;BME280;23694;43.274;26.924;2024-01-16T08:51:37;98114.41;;;10.26;49.57
37856;BME280;23694;43.274;26.924;2024-01-16T08:54:03;98128.44;;;10.13;49.52
37856;BME280;23694;43.274;26.924;2024-01-16T08:56:29;98129.56;;;9.77;50.74
37856;BME280;23694;43.274;26.924;2024-01-16T08:58:56;98153.06;;;9.55;51.91
37856;BME280;23694;43.274;26.924;2024-01-16T09:01:22;98138.09;;;9.46;52.32
37856;BME280;23694;43.274;26.924;2024-01-16T09:03:49;98142.41;;;9.92;51.25
37856;BME280;23694;43.274;26.924;2024-01-16T09:06:15;98132.16;;;9.89;50.50
37856;BME280;23694;43.274;26.924;2024-01-16T09:08:41;98152.81;;;9.47;51.18
37856;BME280;23694;43.274;26.924;2024-01-16T09:11:08;98154.56;;;9.24;51.11
37856;BME280;23694;43.274;26.924;2024-01-16T09:13:35;98133.81;;;8.64;51.69
37856;BME280;23694;43.274;26.924;2024-01-16T09:16:02;98147.31;;;8.21;53.38
37856;BME280;23694;43.274;26.924;2024-01-16T09:18:28;98152.47;;;7.97;54.75
37856;BME280;23694;43.274;26.924;2024-01-16T09:20:55;98162.94;;;8.21;54.17
37856;BME280;23694;43.274;26.924;2024-01-16T09:23:21;98165.63;;;7.95;54.04
37856;BME280;23694;43.274;26.924;2024-01-16T09:25:47;98152.31;;;7.24;55.96
37856;BME280;23694;43.274;26.924;2024-01-16T09:28:13;98172.22;;;6.85;58.67
37856;BME280;23694;43.274;26.924;2024-01-16T09:30:42;98172.75;;;7.30;58.34
37856;BME280;23694;43.274;26.924;2024-01-16T09:33:08;98148.88;;;7.36;57.71
37856;BME280;23694;43.274;26.924;2024-01-16T09:35:37;98169.66;;;7.11;58.34
37856;BME280;23694;43.274;26.924;2024-01-16T09:38:04;98156.59;;;7.38;57.67
37856;BME280;23694;43.274;26.924;2024-01-16T09:40:33;98161.59;;;7.53;57.50
37856;BME280;23694;43.274;26.924;2024-01-16T09:43:01;98174.09;;;7.61;55.20
37856;BME280;23694;43.274;26.924;2024-01-16T09:45:28;98175.13;;;7.33;56.03
37856;BME280;23694;43.274;26.924;2024-01-16T09:47:56;98179.09;;;7.51;56.17
37856;BME280;23694;43.274;26.924;2024-01-16T09:50:22;98183.38;;;7.52;54.46
37856;BME280;23694;43.274;26.924;2024-01-16T09:52:49;98185.97;;;7.52;55.57
37856;BME280;23694;43.274;26.924;2024-01-16T09:55:15;98187.66;;;7.41;55.38
37856;BME280;23694;43.274;26.924;2024-01-16T09:57:45;98198.47;;;7.60;55.29
37856;BME280;23694;43.274;26.924;2024-01-16T10:00:12;98190.56;;;7.74;54.60
37856;BME280;23694;43.274;26.924;2024-01-16T10:02:42;98206.41;;;7.71;52.73
37856;BME280;23694;43.274;26.924;2024-01-16T10:05:10;98203.19;;;7.55;53.78
37856;BME280;23694;43.274;26.924;2024-01-16T10:07:41;98206.59;;;7.43;53.96
37856;BME280;23694;43.274;26.924;2024-01-16T10:10:11;98222.56;;;7.38;53.82
37856;BME280;23694;43.274;26.924;2024-01-16T10:12:39;98202.53;;;7.39;53.67
37856;BME280;23694;43.274;26.924;2024-01-16T10:15:07;98210.78;;;7.45;53.82
37856;BME280;23694;43.274;26.924;2024-01-16T10:20:03;98220.06;;;7.62;53.01
37856;BME280;23694;43.274;26.924;2024-01-16T10:22:30;98216.00;;;7.58;53.12
37856;BME280;23694;43.274;26.924;2024-01-16T10:25:04;98237.25;;;7.77;52.29
37856;BME280;23694;43.274;26.924;2024-01-16T10:27:32;98256.25;;;7.67;52.75
37856;BME280;23694;43.274;26.924;2024-01-16T10:29:58;98246.22;;;7.73;52.50
37856;BME280;23694;43.274;26.924;2024-01-16T10:32:38;98247.38;;;7.44;53.91
37856;BME280;23694;43.274;26.924;2024-01-16T10:35:12;98256.94;;;7.43;53.67
37856;BME280;23694;43.274;26.924;2024-01-16T10:37:52;98260.81;;;7.63;53.25
37856;BME280;23694;43.274;26.924;2024-01-16T10:40:20;98239.34;;;7.59;52.99
37856;BME280;23694;43.274;26.924;2024-01-16T10:43:07;98266.28;;;7.85;52.54
37856;BME280;23694;43.274;26.924;2024-01-16T10:45:34;98253.56;;;7.93;52.80
37856;BME280;23694;43.274;26.924;2024-01-16T10:48:04;98270.56;;;7.86;52.29
37856;BME280;23694;43.274;26.924;2024-01-16T10:50:32;98284.75;;;7.82;52.51
37856;BME280;23694;43.274;26.924;2024-01-16T10:53:04;98272.50;;;7.57;52.84
37856;BME280;23694;43.274;26.924;2024-01-16T10:55:31;98271.78;;;7.68;53.11
37856;BME280;23694;43.274;26.924;2024-01-16T10:58:03;98277.44;;;7.87;52.77
37856;BME280;23694;43.274;26.924;2024-01-16T11:00:33;98272.03;;;7.90;52.56
37856;BME280;23694;43.274;26.924;2024-01-16T11:03:07;98272.91;;;7.64;53.50
37856;BME280;23694;43.274;26.924;2024-01-16T11:05:36;98285.72;;;7.54;53.77
37856;BME280;23694;43.274;26.924;2024-01-16T11:08:04;98289.41;;;7.77;53.28
37856;BME280;23694;43.274;26.924;2024-01-16T11:10:32;98302.66;;;7.74;53.08
37856;BME280;23694;43.274;26.924;2024-01-16T11:13:01;98310.19;;;7.91;52.67
37856;BME280;23694;43.274;26.924;2024-01-16T11:15:29;98321.47;;;7.92;53.68
37856;BME280;23694;43.274;26.924;2024-01-16T11:17:55;98314.25;;;7.83;53.60
37856;BME280;23694;43.274;26.924;2024-01-16T11:20:23;98306.75;;;7.91;53.06
37856;BME280;23694;43.274;26.924;2024-01-16T11:22:51;98289.47;;;7.50;52.28
37856;BME280;23694;43.274;26.924;2024-01-16T11:25:32;98296.75;;;7.45;52.18
37856;BME280;23694;43.274;26.924;2024-01-16T11:28:15;98302.47;;;7.38;50.93
37856;BME280;23694;43.274;26.924;2024-01-16T11:30:42;98309.75;;;7.32;51.17
37856;BME280;23694;43.274;26.924;2024-01-16T11:35:59;98312.31;;;7.47;51.93
37856;BME280;23694;43.274;26.924;2024-01-16T11:38:26;98323.69;;;7.58;50.44
37856;BME280;23694;43.274;26.924;2024-01-16T11:40:53;98326.16;;;7.47;50.43
37856;BME280;23694;43.274;26.924;2024-01-16T11:46:02;98347.91;;;7.34;48.92
37856;BME280;23694;43.274;26.924;2024-01-16T11:48:28;98336.06;;;7.42;49.10
37856;BME280;23694;43.274;26.924;2024-01-16T11:50:55;98363.25;;;7.38;49.49
37856;BME280;23694;43.274;26.924;2024-01-16T11:53:34;98370.38;;;7.22;50.81
37856;BME280;23694;43.274;26.924;2024-01-16T12:01:18;98381.03;;;7.58;50.41
37856;BME280;23694;43.274;26.924;2024-01-16T12:04:07;98379.81;;;7.77;50.52
37856;BME280;23694;43.274;26.924;2024-01-16T12:06:35;98371.84;;;7.92;48.85
37856;BME280;23694;43.274;26.924;2024-01-16T12:09:18;98377.72;;;7.69;49.54
37856;BME280;23694;43.274;26.924;2024-01-16T12:11:44;98391.59;;;7.70;49.45
37856;BME280;23694;43.274;26.924;2024-01-16T12:14:12;98398.66;;;7.68;50.01
37856;BME280;23694;43.274;26.924;2024-01-16T12:16:38;98417.75;;;7.68;49.48
37856;BME280;23694;43.274;26.924;2024-01-16T12:19:08;98417.63;;;7.84;48.02
37856;BME280;23694;43.274;26.924;2024-01-16T12:21:45;98434.28;;;7.81;48.20
37856;BME280;23694;43.274;26.924;2024-01-16T12:24:12;98441.44;;;8.05;47.84
37856;BME280;23694;43.274;26.924;2024-01-16T12:26:38;98448.31;;;8.06;47.51
37856;BME280;23694;43.274;26.924;2024-01-16T12:29:05;98436.50;;;7.87;48.29
37856;BME280;23694;43.274;26.924;2024-01-16T12:31:31;98444.41;;;7.86;48.11
37856;BME280;23694;43.274;26.924;2024-01-16T12:34:10;98451.47;;;8.11;46.90
37856;BME280;23694;43.274;26.924;2024-01-16T12:36:37;98468.59;;;8.15;47.52
37856;BME280;23694;43.274;26.924;2024-01-16T12:39:03;98458.78;;;8.18;47.48
37856;BME280;23694;43.274;26.924;2024-01-16T12:41:36;98478.09;;;8.16;46.14
37856;BME280;23694;43.274;26.924;2024-01-16T12:44:05;98484.75;;;8.07;46.81
37856;BME280;23694;43.274;26.924;2024-01-16T12:46:32;98497.56;;;8.37;46.18
37856;BME280;23694;43.274;26.924;2024-01-16T12:49:02;98493.44;;;8.98;44.61
37856;BME280;23694;43.274;26.924;2024-01-16T12:51:29;98495.44;;;9.57;43.31
37856;BME280;23694;43.274;26.924;2024-01-16T12:54:13;98493.66;;;8.70;44.70
37856;BME280;23694;43.274;26.924;2024-01-16T12:56:40;98517.63;;;9.88;42.85
37856;BME280;23694;43.274;26.924;2024-01-16T12:59:10;98520.53;;;10.43;41.29
37856;BME280;23694;43.274;26.924;2024-01-16T13:01:44;98526.66;;;10.31;41.81
37856;BME280;23694;43.274;26.924;2024-01-16T13:04:12;98532.78;;;10.78;40.50
37856;BME280;23694;43.274;26.924;2024-01-16T13:06:40;98540.13;;;10.38;40.09
37856;BME280;23694;43.274;26.924;2024-01-16T13:09:10;98551.22;;;9.32;42.40
37856;BME280;23694;43.274;26.924;2024-01-16T13:11:50;98552.88;;;8.69;43.90
37856;BME280;23694;43.274;26.924;2024-01-16T13:14:24;98541.91;;;8.77;43.92
37856;BME280;23694;43.274;26.924;2024-01-16T13:16:52;98539.06;;;7.59;46.60